sensor_id;sensor_type;location;lat;lon;timestamp;temperature;humidity
64549;DHT22;49838;51.798;10.954;2022-11-18T00:00:48;11.70;54.10
64549;DHT22;49838;51.798;10.954;2022-11-18T00:03:15;11.70;54.00
64549;DHT22;49838;51.798;10.954;2022-11-18T00:05:50;11.70;54.10
64549;DHT22;49838;51.798;10.954;2022-11-18T00:08:18;11.60;54.10
64549;DHT22;49838;51.798;10.954;2022-11-18T00:10:46;11.70;54.30
64549;DHT22;49838;51.798;10.954;2022-11-18T00:13:14;11.70;54.10
64549;DHT22;49838;51.798;10.954;2022-11-18T00:16:00;11.70;54.10
64549;DHT22;49838;51.798;10.954;2022-11-18T00:18:28;11.60;54.00
64549;DHT22;49838;51.798;10.954;2022-11-18T00:20:59;11.60;54.10
64549;DHT22;49838;51.798;10.954;2022-11-18T00:23:26;11.60;54.00
64549;DHT22;49838;51.798;10.954;2022-11-18T00:25:54;11.50;54.00
64549;DHT22;49838;51.798;10.954;2022-11-18T00:28:23;11.50;54.70
64549;DHT22;49838;51.798;10.954;2022-11-18T00:30:50;11.60;54.20
64549;DHT22;49838;51.798;10.954;2022-11-18T00:33:17;11.60;54.00
64549;DHT22;49838;51.798;10.954;2022-11-18T00:35:51;11.60;54.00
64549;DHT22;49838;51.798;10.954;2022-11-18T00:38:19;11.50;54.00
64549;DHT22;49838;51.798;10.954;2022-11-18T00:40:47;11.50;54.10
64549;DHT22;49838;51.798;10.954;2022-11-18T00:43:15;11.50;54.30
64549;DHT22;49838;51.798;10.954;2022-11-18T00:45:42;11.50;54.10
64549;DHT22;49838;51.798;10.954;2022-11-18T00:48:10;11.50;54.10
64549;DHT22;49838;51.798;10.954;2022-11-18T00:50:37;11.50;54.10
64549;DHT22;49838;51.798;10.954;2022-11-18T00:53:04;11.50;54.10
64549;DHT22;49838;51.798;10.954;2022-11-18T00:55:32;11.50;54.10
64549;DHT22;49838;51.798;10.954;2022-11-18T00:57:59;11.60;54.10
64549;DHT22;49838;51.798;10.954;2022-11-18T01:00:26;11.60;54.00
64549;DHT22;49838;51.798;10.954;2022-11-18T01:02:55;11.50;53.90
64549;DHT22;49838;51.798;10.954;2022-11-18T01:05:22;11.50;53.90
64549;DHT22;49838;51.798;10.954;2022-11-18T01:07:50;11.50;54.00
64549;DHT22;49838;51.798;10.954;2022-11-18T01:10:17;11.50;54.00
64549;DHT22;49838;51.798;10.954;2022-11-18T01:12:44;11.40;53.90
64549;DHT22;49838;51.798;10.954;2022-11-18T01:15:38;11.50;54.30
64549;DHT22;49838;51.798;10.954;2022-11-18T01:18:07;11.50;54.10
64549;DHT22;49838;51.798;10.954;2022-11-18T01:20:35;11.60;53.90
64549;DHT22;49838;51.798;10.954;2022-11-18T01:23:03;11.50;53.70
64549;DHT22;49838;51.798;10.954;2022-11-18T01:25:31;11.50;53.80
64549;DHT22;49838;51.798;10.954;2022-11-18T01:27:58;11.50;53.80
64549;DHT22;49838;51.798;10.954;2022-11-18T01:30:25;11.50;53.90
64549;DHT22;49838;51.798;10.954;2022-11-18T01:32:53;11.40;53.80
64549;DHT22;49838;51.798;10.954;2022-11-18T01:35:21;11.40;53.90
64549;DHT22;49838;51.798;10.954;2022-11-18T01:37:49;11.40;54.00
64549;DHT22;49838;51.798;10.954;2022-11-18T01:40:16;11.40;54.00
64549;DHT22;49838;51.798;10.954;2022-11-18T01:42:43;11.40;54.00
64549;DHT22;49838;51.798;10.954;2022-11-18T01:45:18;11.30;53.90
64549;DHT22;49838;51.798;10.954;2022-11-18T01:47:51;11.40;54.00
64549;DHT22;49838;51.798;10.954;2022-11-18T01:50:25;11.30;53.90
64549;DHT22;49838;51.798;10.954;2022-11-18T01:52:54;11.30;54.00
64549;DHT22;49838;51.798;10.954;2022-11-18T01:55:26;11.30;53.80
64549;DHT22;49838;51.798;10.954;2022-11-18T01:57:58;11.30;54.00
64549;DHT22;49838;51.798;10.954;2022-11-18T02:00:31;11.30;53.90
64549;DHT22;49838;51.798;10.954;2022-11-18T02:02:59;11.30;53.90
64549;DHT22;49838;51.798;10.954;2022-11-18T02:05:29;11.30;53.90
64549;DHT22;49838;51.798;10.954;2022-11-18T02:08:00;11.20;54.00
64549;DHT22;49838;51.798;10.954;2022-11-18T02:10:29;11.30;54.00
64549;DHT22;49838;51.798;10.954;2022-11-18T02:12:56;11.30;53.90
64549;DHT22;49838;51.798;10.954;2022-11-18T02:15:25;11.40;53.70
64549;DHT22;49838;51.798;10.954;2022-11-18T02:18:06;11.30;53.40
64549;DHT22;49838;51.798;10.954;2022-11-18T02:20:42;11.20;53.40
64549;DHT22;49838;51.798;10.954;2022-11-18T02:23:30;11.10;53.40
64549;DHT22;49838;51.798;10.954;2022-11-18T02:29:24;11.10;53.80
64549;DHT22;49838;51.798;10.954;2022-11-18T02:31:56;11.00;53.60
64549;DHT22;49838;51.798;10.954;2022-11-18T02:34:31;11.00;53.70
64549;DHT22;49838;51.798;10.954;2022-11-18T02:37:05;11.00;53.50
64549;DHT22;49838;51.798;10.954;2022-11-18T02:39:38;11.00;53.60
64549;DHT22;49838;51.798;10.954;2022-11-18T02:42:13;10.90;53.70
64549;DHT22;49838;51.798;10.954;2022-11-18T02:44:44;10.90;53.70
64549;DHT22;49838;51.798;10.954;2022-11-18T02:47:16;10.80;53.70
64549;DHT22;49838;51.798;10.954;2022-11-18T02:49:47;10.70;53.80
64549;DHT22;49838;51.798;10.954;2022-11-18T02:52:18;10.70;54.10
64549;DHT22;49838;51.798;10.954;2022-11-18T02:54:47;10.70;53.80
64549;DHT22;49838;51.798;10.954;2022-11-18T02:57:16;10.70;53.90
64549;DHT22;49838;51.798;10.954;2022-11-18T02:59:47;10.70;53.90
64549;DHT22;49838;51.798;10.954;2022-11-18T03:02:15;10.70;54.00
64549;DHT22;49838;51.798;10.954;2022-11-18T03:04:45;10.70;53.90
64549;DHT22;49838;51.798;10.954;2022-11-18T03:07:15;10.60;53.80
64549;DHT22;49838;51.798;10.954;2022-11-18T03:09:46;10.60;53.90
64549;DHT22;49838;51.798;10.954;2022-11-18T03:12:17;10.60;53.90
64549;DHT22;49838;51.798;10.954;2022-11-18T03:14:53;10.70;54.00
64549;DHT22;49838;51.798;10.954;2022-11-18T03:17:30;10.70;53.90
64549;DHT22;49838;51.798;10.954;2022-11-18T03:20:08;10.70;53.90
64549;DHT22;49838;51.798;10.954;2022-11-18T03:22:41;10.70;53.90
64549;DHT22;49838;51.798;10.954;2022-11-18T03:25:13;10.70;53.90
64549;DHT22;49838;51.798;10.954;2022-11-18T03:27:46;10.60;53.70
64549;DHT22;49838;51.798;10.954;2022-11-18T03:30:21;10.60;53.90
64549;DHT22;49838;51.798;10.954;2022-11-18T03:32:51;10.60;54.00
64549;DHT22;49838;51.798;10.954;2022-11-18T03:35:23;10.60;54.00
64549;DHT22;49838;51.798;10.954;2022-11-18T03:37:55;10.60;54.00
64549;DHT22;49838;51.798;10.954;2022-11-18T03:40:27;10.60;53.70
64549;DHT22;49838;51.798;10.954;2022-11-18T03:42:59;10.60;53.80
64549;DHT22;49838;51.798;10.954;2022-11-18T03:45:34;10.60;53.80
64549;DHT22;49838;51.798;10.954;2022-11-18T03:48:07;10.50;53.70
64549;DHT22;49838;51.798;10.954;2022-11-18T03:50:38;10.50;53.70
64549;DHT22;49838;51.798;10.954;2022-11-18T03:53:10;10.50;53.80
64549;DHT22;49838;51.798;10.954;2022-11-18T03:55:40;10.50;53.90
64549;DHT22;49838;51.798;10.954;2022-11-18T03:58:15;10.40;53.70
64549;DHT22;49838;51.798;10.954;2022-11-18T04:00:50;10.40;53.90
64549;DHT22;49838;51.798;10.954;2022-11-18T04:03:20;10.30;53.80
64549;DHT22;49838;51.798;10.954;2022-11-18T04:05:51;10.30;53.80
64549;DHT22;49838;51.798;10.954;2022-11-18T04:08:30;10.30;53.70
64549;DHT22;49838;51.798;10.954;2022-11-18T04:11:03;10.20;53.90
64549;DHT22;49838;51.798;10.954;2022-11-18T04:13:57;10.30;53.80
64549;DHT22;49838;51.798;10.954;2022-11-18T04:16:26;10.20;53.80
64549;DHT22;49838;51.798;10.954;2022-11-18T04:18:53;10.20;54.10
64549;DHT22;49838;51.798;10.954;2022-11-18T04:21:20;10.20;53.80
64549;DHT22;49838;51.798;10.954;2022-11-18T04:23:48;10.20;53.70
64549;DHT22;49838;51.798;10.954;2022-11-18T04:26:15;10.20;53.60
64549;DHT22;49838;51.798;10.954;2022-11-18T04:28:43;10.20;53.60
64549;DHT22;49838;51.798;10.954;2022-11-18T04:31:10;10.30;53.70
64549;DHT22;49838;51.798;10.954;2022-11-18T04:33:39;10.30;53.50
64549;DHT22;49838;51.798;10.954;2022-11-18T04:36:06;10.30;53.60
64549;DHT22;49838;51.798;10.954;2022-11-18T04:38:34;10.40;53.50
64549;DHT22;49838;51.798;10.954;2022-11-18T04:41:01;10.40;53.40
64549;DHT22;49838;51.798;10.954;2022-11-18T04:43:29;10.40;53.30
64549;DHT22;49838;51.798;10.954;2022-11-18T04:45:56;10.30;53.30
64549;DHT22;49838;51.798;10.954;2022-11-18T04:48:23;10.30;53.20
64549;DHT22;49838;51.798;10.954;2022-11-18T04:50:52;10.30;53.20
64549;DHT22;49838;51.798;10.954;2022-11-18T04:53:22;10.30;53.10
64549;DHT22;49838;51.798;10.954;2022-11-18T04:55:49;10.30;53.10
64549;DHT22;49838;51.798;10.954;2022-11-18T04:58:17;10.40;53.10
64549;DHT22;49838;51.798;10.954;2022-11-18T05:00:44;10.30;53.10
64549;DHT22;49838;51.798;10.954;2022-11-18T05:03:11;10.30;53.10
64549;DHT22;49838;51.798;10.954;2022-11-18T05:05:41;10.30;53.10
64549;DHT22;49838;51.798;10.954;2022-11-18T05:08:09;10.30;53.10
64549;DHT22;49838;51.798;10.954;2022-11-18T05:10:37;10.30;53.00
64549;DHT22;49838;51.798;10.954;2022-11-18T05:13:04;10.30;53.10
64549;DHT22;49838;51.798;10.954;2022-11-18T05:15:30;10.20;53.10
64549;DHT22;49838;51.798;10.954;2022-11-18T05:17:58;10.20;53.00
64549;DHT22;49838;51.798;10.954;2022-11-18T05:20:25;10.20;53.00
64549;DHT22;49838;51.798;10.954;2022-11-18T05:22:52;10.20;52.90
64549;DHT22;49838;51.798;10.954;2022-11-18T05:25:21;10.20;53.10
64549;DHT22;49838;51.798;10.954;2022-11-18T05:27:48;10.10;53.00
64549;DHT22;49838;51.798;10.954;2022-11-18T05:30:16;10.10;53.00
64549;DHT22;49838;51.798;10.954;2022-11-18T05:32:44;10.10;53.00
64549;DHT22;49838;51.798;10.954;2022-11-18T05:35:11;10.10;53.10
64549;DHT22;49838;51.798;10.954;2022-11-18T05:37:39;10.10;53.00
64549;DHT22;49838;51.798;10.954;2022-11-18T05:40:07;10.10;53.10
64549;DHT22;49838;51.798;10.954;2022-11-18T05:42:36;10.10;53.00
64549;DHT22;49838;51.798;10.954;2022-11-18T05:45:21;10.10;52.90
64549;DHT22;49838;51.798;10.954;2022-11-18T05:47:48;10.00;52.90
64549;DHT22;49838;51.798;10.954;2022-11-18T05:50:29;10.00;52.90
64549;DHT22;49838;51.798;10.954;2022-11-18T05:52:57;9.90;53.80
64549;DHT22;49838;51.798;10.954;2022-11-18T05:55:26;9.90;53.80
64549;DHT22;49838;51.798;10.954;2022-11-18T05:57:58;9.90;54.00
64549;DHT22;49838;51.798;10.954;2022-11-18T06:00:26;9.90;54.00
64549;DHT22;49838;51.798;10.954;2022-11-18T06:02:54;9.90;53.90
64549;DHT22;49838;51.798;10.954;2022-11-18T06:05:22;9.80;53.80
64549;DHT22;49838;51.798;10.954;2022-11-18T06:07:52;9.80;54.10
64549;DHT22;49838;51.798;10.954;2022-11-18T06:10:23;9.80;54.00
64549;DHT22;49838;51.798;10.954;2022-11-18T06:12:57;9.90;53.90
64549;DHT22;49838;51.798;10.954;2022-11-18T06:15:29;9.90;54.00
64549;DHT22;49838;51.798;10.954;2022-11-18T06:18:02;9.80;53.80
64549;DHT22;49838;51.798;10.954;2022-11-18T06:20:32;9.70;53.80
64549;DHT22;49838;51.798;10.954;2022-11-18T06:23:02;9.60;54.00
64549;DHT22;49838;51.798;10.954;2022-11-18T06:25:30;9.60;54.00
64549;DHT22;49838;51.798;10.954;2022-11-18T06:27:59;9.60;54.20
64549;DHT22;49838;51.798;10.954;2022-11-18T06:30:28;9.70;54.10
64549;DHT22;49838;51.798;10.954;2022-11-18T06:32:55;9.70;54.70
64549;DHT22;49838;51.798;10.954;2022-11-18T06:35:23;9.60;54.20
64549;DHT22;49838;51.798;10.954;2022-11-18T06:37:50;9.60;54.30
64549;DHT22;49838;51.798;10.954;2022-11-18T06:40:17;9.70;54.30
64549;DHT22;49838;51.798;10.954;2022-11-18T06:42:44;9.70;54.20
64549;DHT22;49838;51.798;10.954;2022-11-18T06:45:45;9.70;54.40
64549;DHT22;49838;51.798;10.954;2022-11-18T06:48:33;9.70;54.40
64549;DHT22;49838;51.798;10.954;2022-11-18T06:51:03;9.80;54.20
64549;DHT22;49838;51.798;10.954;2022-11-18T06:53:31;9.80;54.10
64549;DHT22;49838;51.798;10.954;2022-11-18T06:56:01;9.70;54.10
64549;DHT22;49838;51.798;10.954;2022-11-18T06:58:28;9.70;54.10
64549;DHT22;49838;51.798;10.954;2022-11-18T07:00:57;9.80;54.10
64549;DHT22;49838;51.798;10.954;2022-11-18T07:03:24;9.70;54.00
64549;DHT22;49838;51.798;10.954;2022-11-18T07:05:52;9.70;54.20
64549;DHT22;49838;51.798;10.954;2022-11-18T07:08:19;9.80;54.30
64549;DHT22;49838;51.798;10.954;2022-11-18T07:10:50;9.70;54.20
64549;DHT22;49838;51.798;10.954;2022-11-18T07:13:20;9.80;54.20
64549;DHT22;49838;51.798;10.954;2022-11-18T07:15:47;9.80;54.00
64549;DHT22;49838;51.798;10.954;2022-11-18T07:18:16;9.80;54.00
64549;DHT22;49838;51.798;10.954;2022-11-18T07:20:43;9.80;53.90
64549;DHT22;49838;51.798;10.954;2022-11-18T07:23:10;9.80;53.90
64549;DHT22;49838;51.798;10.954;2022-11-18T07:25:37;9.80;54.00
64549;DHT22;49838;51.798;10.954;2022-11-18T07:28:05;9.70;53.90
64549;DHT22;49838;51.798;10.954;2022-11-18T07:30:32;9.70;53.80
64549;DHT22;49838;51.798;10.954;2022-11-18T07:32:59;9.70;53.80
64549;DHT22;49838;51.798;10.954;2022-11-18T07:35:28;9.70;53.80
64549;DHT22;49838;51.798;10.954;2022-11-18T07:37:55;9.70;53.90
64549;DHT22;49838;51.798;10.954;2022-11-18T07:40:23;9.70;54.00
64549;DHT22;49838;51.798;10.954;2022-11-18T07:42:50;9.70;54.00
64549;DHT22;49838;51.798;10.954;2022-11-18T07:45:18;9.80;54.00
64549;DHT22;49838;51.798;10.954;2022-11-18T07:47:46;9.80;53.90
64549;DHT22;49838;51.798;10.954;2022-11-18T07:50:13;9.70;53.80
64549;DHT22;49838;51.798;10.954;2022-11-18T07:52:42;9.70;53.80
64549;DHT22;49838;51.798;10.954;2022-11-18T07:55:10;9.70;53.80
64549;DHT22;49838;51.798;10.954;2022-11-18T07:57:37;9.70;53.90
64549;DHT22;49838;51.798;10.954;2022-11-18T08:00:05;9.60;53.80
64549;DHT22;49838;51.798;10.954;2022-11-18T08:02:33;9.60;53.70
64549;DHT22;49838;51.798;10.954;2022-11-18T08:05:01;9.60;53.60
64549;DHT22;49838;51.798;10.954;2022-11-18T08:07:28;9.60;53.70
64549;DHT22;49838;51.798;10.954;2022-11-18T08:09:57;9.50;53.50
64549;DHT22;49838;51.798;10.954;2022-11-18T08:12:24;9.40;53.70
64549;DHT22;49838;51.798;10.954;2022-11-18T08:14:51;9.40;53.60
64549;DHT22;49838;51.798;10.954;2022-11-18T08:17:19;9.40;54.00
64549;DHT22;49838;51.798;10.954;2022-11-18T08:19:46;9.30;53.50
64549;DHT22;49838;51.798;10.954;2022-11-18T08:22:13;9.30;53.60
64549;DHT22;49838;51.798;10.954;2022-11-18T08:24:41;9.20;53.50
64549;DHT22;49838;51.798;10.954;2022-11-18T08:27:10;9.10;53.60
64549;DHT22;49838;51.798;10.954;2022-11-18T08:29:37;9.10;53.50
64549;DHT22;49838;51.798;10.954;2022-11-18T08:32:05;9.10;53.70
64549;DHT22;49838;51.798;10.954;2022-11-18T08:34:32;9.10;53.80
64549;DHT22;49838;51.798;10.954;2022-11-18T08:37:00;9.10;53.60
64549;DHT22;49838;51.798;10.954;2022-11-18T08:39:27;9.00;53.70
64549;DHT22;49838;51.798;10.954;2022-11-18T08:41:56;9.00;53.70
64549;DHT22;49838;51.798;10.954;2022-11-18T08:44:25;9.00;53.80
64549;DHT22;49838;51.798;10.954;2022-11-18T08:46:53;9.00;53.70
64549;DHT22;49838;51.798;10.954;2022-11-18T08:49:20;8.90;53.70
64549;DHT22;49838;51.798;10.954;2022-11-18T08:51:47;8.90;53.80
64549;DHT22;49838;51.798;10.954;2022-11-18T08:54:18;8.90;53.60
64549;DHT22;49838;51.798;10.954;2022-11-18T08:56:45;8.90;53.80
64549;DHT22;49838;51.798;10.954;2022-11-18T08:59:12;8.90;53.80
64549;DHT22;49838;51.798;10.954;2022-11-18T09:01:41;8.80;53.70
64549;DHT22;49838;51.798;10.954;2022-11-18T09:04:09;8.80;53.80
64549;DHT22;49838;51.798;10.954;2022-11-18T09:06:36;8.80;53.80
64549;DHT22;49838;51.798;10.954;2022-11-18T09:09:05;8.80;53.70
64549;DHT22;49838;51.798;10.954;2022-11-18T09:11:34;8.70;53.80
64549;DHT22;49838;51.798;10.954;2022-11-18T09:14:01;8.70;53.70
64549;DHT22;49838;51.798;10.954;2022-11-18T09:16:29;8.70;53.90
64549;DHT22;49838;51.798;10.954;2022-11-18T09:18:59;8.60;53.80
64549;DHT22;49838;51.798;10.954;2022-11-18T09:21:26;8.60;53.90
64549;DHT22;49838;51.798;10.954;2022-11-18T09:23:54;8.70;54.10
64549;DHT22;49838;51.798;10.954;2022-11-18T09:26:21;8.70;53.90
64549;DHT22;49838;51.798;10.954;2022-11-18T09:28:51;8.70;53.80
64549;DHT22;49838;51.798;10.954;2022-11-18T09:31:19;8.70;53.80
64549;DHT22;49838;51.798;10.954;2022-11-18T09:33:46;8.70;53.70
64549;DHT22;49838;51.798;10.954;2022-11-18T09:36:16;8.70;53.80
64549;DHT22;49838;51.798;10.954;2022-11-18T09:38:45;8.60;53.80
64549;DHT22;49838;51.798;10.954;2022-11-18T09:41:28;8.60;53.90
64549;DHT22;49838;51.798;10.954;2022-11-18T09:44:07;8.60;53.90
64549;DHT22;49838;51.798;10.954;2022-11-18T09:46:54;8.50;53.80
64549;DHT22;49838;51.798;10.954;2022-11-18T09:49:30;8.50;53.80
64549;DHT22;49838;51.798;10.954;2022-11-18T09:52:03;8.50;53.90
64549;DHT22;49838;51.798;10.954;2022-11-18T09:54:33;8.50;53.70
64549;DHT22;49838;51.798;10.954;2022-11-18T09:57:02;8.50;53.80
64549;DHT22;49838;51.798;10.954;2022-11-18T09:59:36;8.50;53.80
64549;DHT22;49838;51.798;10.954;2022-11-18T10:02:10;8.40;53.70
64549;DHT22;49838;51.798;10.954;2022-11-18T10:04:53;8.40;53.80
64549;DHT22;49838;51.798;10.954;2022-11-18T10:07:25;8.40;53.80
64549;DHT22;49838;51.798;10.954;2022-11-18T10:10:01;8.40;53.80
64549;DHT22;49838;51.798;10.954;2022-11-18T10:12:38;8.40;53.90
64549;DHT22;49838;51.798;10.954;2022-11-18T10:15:13;8.40;53.80
64549;DHT22;49838;51.798;10.954;2022-11-18T10:17:50;8.40;53.70
64549;DHT22;49838;51.798;10.954;2022-11-18T10:20:29;8.40;53.60
64549;DHT22;49838;51.798;10.954;2022-11-18T10:23:04;8.40;53.70
64549;DHT22;49838;51.798;10.954;2022-11-18T10:25:38;8.30;53.70
64549;DHT22;49838;51.798;10.954;2022-11-18T10:28:13;8.30;53.70
64549;DHT22;49838;51.798;10.954;2022-11-18T10:30:47;8.30;53.90
64549;DHT22;49838;51.798;10.954;2022-11-18T10:33:17;8.30;53.80
64549;DHT22;49838;51.798;10.954;2022-11-18T10:35:51;8.30;53.80
64549;DHT22;49838;51.798;10.954;2022-11-18T10:38:36;8.30;53.90
64549;DHT22;49838;51.798;10.954;2022-11-18T10:41:04;8.30;53.80
64549;DHT22;49838;51.798;10.954;2022-11-18T10:43:41;8.30;53.70
64549;DHT22;49838;51.798;10.954;2022-11-18T10:46:14;8.30;53.90
64549;DHT22;49838;51.798;10.954;2022-11-18T10:48:44;8.30;53.80
64549;DHT22;49838;51.798;10.954;2022-11-18T10:51:21;8.30;53.70
64549;DHT22;49838;51.798;10.954;2022-11-18T10:53:52;8.20;53.70
64549;DHT22;49838;51.798;10.954;2022-11-18T10:56:42;8.20;53.60
64549;DHT22;49838;51.798;10.954;2022-11-18T10:59:14;8.20;53.60
64549;DHT22;49838;51.798;10.954;2022-11-18T11:01:55;8.10;53.60
64549;DHT22;49838;51.798;10.954;2022-11-18T11:04:24;8.10;53.70
64549;DHT22;49838;51.798;10.954;2022-11-18T11:06:52;8.00;53.70
64549;DHT22;49838;51.798;10.954;2022-11-18T11:09:23;8.00;53.60
64549;DHT22;49838;51.798;10.954;2022-11-18T11:11:54;8.00;53.80
64549;DHT22;49838;51.798;10.954;2022-11-18T11:14:25;8.00;53.80
64549;DHT22;49838;51.798;10.954;2022-11-18T11:16:58;8.00;53.70
64549;DHT22;49838;51.798;10.954;2022-11-18T11:19:35;8.00;53.70
64549;DHT22;49838;51.798;10.954;2022-11-18T11:22:07;7.90;53.60
64549;DHT22;49838;51.798;10.954;2022-11-18T11:24:38;7.80;53.50
64549;DHT22;49838;51.798;10.954;2022-11-18T11:27:14;7.80;53.60
64549;DHT22;49838;51.798;10.954;2022-11-18T11:30:00;7.80;53.50
64549;DHT22;49838;51.798;10.954;2022-11-18T11:32:34;7.80;53.60
64549;DHT22;49838;51.798;10.954;2022-11-18T11:35:19;7.80;53.60
64549;DHT22;49838;51.798;10.954;2022-11-18T11:37:50;7.80;53.60
64549;DHT22;49838;51.798;10.954;2022-11-18T11:40:24;7.80;53.60
64549;DHT22;49838;51.798;10.954;2022-11-18T11:43:00;7.80;53.60
64549;DHT22;49838;51.798;10.954;2022-11-18T11:45:45;7.80;53.50
64549;DHT22;49838;51.798;10.954;2022-11-18T11:48:26;7.70;53.70
64549;DHT22;49838;51.798;10.954;2022-11-18T11:51:03;7.80;53.70
64549;DHT22;49838;51.798;10.954;2022-11-18T11:53:59;7.80;53.50
64549;DHT22;49838;51.798;10.954;2022-11-18T11:56:39;7.80;53.50
64549;DHT22;49838;51.798;10.954;2022-11-18T11:59:12;7.70;53.60
64549;DHT22;49838;51.798;10.954;2022-11-18T12:01:51;7.70;53.60
64549;DHT22;49838;51.798;10.954;2022-11-18T12:04:30;7.60;53.50
64549;DHT22;49838;51.798;10.954;2022-11-18T12:07:06;7.60;53.60
64549;DHT22;49838;51.798;10.954;2022-11-18T12:09:55;7.60;53.70
64549;DHT22;49838;51.798;10.954;2022-11-18T12:12:33;7.70;53.80
64549;DHT22;49838;51.798;10.954;2022-11-18T12:15:19;7.60;53.60
64549;DHT22;49838;51.798;10.954;2022-11-18T12:17:59;7.70;53.70
64549;DHT22;49838;51.798;10.954;2022-11-18T12:20:38;7.60;53.60
64549;DHT22;49838;51.798;10.954;2022-11-18T12:23:09;7.60;53.60
64549;DHT22;49838;51.798;10.954;2022-11-18T12:25:52;7.70;53.60
64549;DHT22;49838;51.798;10.954;2022-11-18T12:28:27;7.60;53.60
64549;DHT22;49838;51.798;10.954;2022-11-18T12:33:53;7.60;53.70
64549;DHT22;49838;51.798;10.954;2022-11-18T12:36:25;7.60;53.60
64549;DHT22;49838;51.798;10.954;2022-11-18T12:38:54;7.60;53.50
64549;DHT22;49838;51.798;10.954;2022-11-18T12:44:39;7.50;53.50
64549;DHT22;49838;51.798;10.954;2022-11-18T12:47:08;7.50;53.70
64549;DHT22;49838;51.798;10.954;2022-11-18T12:52:45;7.40;53.30
64549;DHT22;49838;51.798;10.954;2022-11-18T12:55:15;7.30;53.30
64549;DHT22;49838;51.798;10.954;2022-11-18T12:57:44;7.20;53.40
64549;DHT22;49838;51.798;10.954;2022-11-18T13:00:25;7.20;53.30
64549;DHT22;49838;51.798;10.954;2022-11-18T13:02:56;7.10;53.30
64549;DHT22;49838;51.798;10.954;2022-11-18T13:05:25;7.10;53.30
64549;DHT22;49838;51.798;10.954;2022-11-18T13:07:53;7.10;53.60
64549;DHT22;49838;51.798;10.954;2022-11-18T13:10:43;7.10;53.50
64549;DHT22;49838;51.798;10.954;2022-11-18T13:13:19;7.00;53.40
64549;DHT22;49838;51.798;10.954;2022-11-18T13:15:52;7.00;53.30
64549;DHT22;49838;51.798;10.954;2022-11-18T13:18:48;7.00;53.40
64549;DHT22;49838;51.798;10.954;2022-11-18T13:21:20;7.00;53.40
64549;DHT22;49838;51.798;10.954;2022-11-18T13:24:09;7.00;53.60
64549;DHT22;49838;51.798;10.954;2022-11-18T13:26:38;7.10;53.60
64549;DHT22;49838;51.798;10.954;2022-11-18T13:29:12;7.00;53.50
64549;DHT22;49838;51.798;10.954;2022-11-18T13:31:51;7.00;53.50
64549;DHT22;49838;51.798;10.954;2022-11-18T13:34:28;7.10;53.40
64549;DHT22;49838;51.798;10.954;2022-11-18T13:36:57;7.10;53.50
64549;DHT22;49838;51.798;10.954;2022-11-18T13:39:26;7.20;53.40
64549;DHT22;49838;51.798;10.954;2022-11-18T13:41:58;7.20;53.30
64549;DHT22;49838;51.798;10.954;2022-11-18T13:44:28;7.20;53.30
64549;DHT22;49838;51.798;10.954;2022-11-18T13:47:00;7.10;53.30
64549;DHT22;49838;51.798;10.954;2022-11-18T13:49:41;7.10;53.30
64549;DHT22;49838;51.798;10.954;2022-11-18T13:52:13;7.10;53.40
64549;DHT22;49838;51.798;10.954;2022-11-18T13:54:43;7.10;53.70
64549;DHT22;49838;51.798;10.954;2022-11-18T13:57:14;7.10;53.50
64549;DHT22;49838;51.798;10.954;2022-11-18T13:59:44;7.10;53.30
64549;DHT22;49838;51.798;10.954;2022-11-18T14:02:14;7.10;53.40
64549;DHT22;49838;51.798;10.954;2022-11-18T14:04:47;7.10;53.30
64549;DHT22;49838;51.798;10.954;2022-11-18T14:07:25;7.10;53.10
64549;DHT22;49838;51.798;10.954;2022-11-18T14:09:56;7.00;53.00
64549;DHT22;49838;51.798;10.954;2022-11-18T14:12:26;7.00;53.20
64549;DHT22;49838;51.798;10.954;2022-11-18T14:15:11;7.00;53.30
64549;DHT22;49838;51.798;10.954;2022-11-18T14:17:49;7.00;53.20
64549;DHT22;49838;51.798;10.954;2022-11-18T14:20:18;7.00;53.00
64549;DHT22;49838;51.798;10.954;2022-11-18T14:22:47;7.00;53.20
64549;DHT22;49838;51.798;10.954;2022-11-18T14:25:18;7.10;53.10
64549;DHT22;49838;51.798;10.954;2022-11-18T14:27:49;7.00;53.20
64549;DHT22;49838;51.798;10.954;2022-11-18T14:30:24;7.00;53.20
64549;DHT22;49838;51.798;10.954;2022-11-18T14:33:13;7.00;53.20
64549;DHT22;49838;51.798;10.954;2022-11-18T14:35:44;6.90;52.90
64549;DHT22;49838;51.798;10.954;2022-11-18T14:38:16;6.90;53.00
64549;DHT22;49838;51.798;10.954;2022-11-18T14:40:45;6.90;53.10
64549;DHT22;49838;51.798;10.954;2022-11-18T14:43:12;6.90;53.10
64549;DHT22;49838;51.798;10.954;2022-11-18T14:45:40;6.90;53.00
64549;DHT22;49838;51.798;10.954;2022-11-18T14:48:08;6.80;52.80
64549;DHT22;49838;51.798;10.954;2022-11-18T14:50:39;6.70;52.80
64549;DHT22;49838;51.798;10.954;2022-11-18T14:53:08;6.70;53.00
64549;DHT22;49838;51.798;10.954;2022-11-18T14:55:36;6.70;53.00
64549;DHT22;49838;51.798;10.954;2022-11-18T14:58:03;6.70;53.10
64549;DHT22;49838;51.798;10.954;2022-11-18T15:00:30;6.70;53.10
64549;DHT22;49838;51.798;10.954;2022-11-18T15:02:58;6.60;53.00
64549;DHT22;49838;51.798;10.954;2022-11-18T15:05:25;6.50;53.00
64549;DHT22;49838;51.798;10.954;2022-11-18T15:07:53;6.50;53.10
64549;DHT22;49838;51.798;10.954;2022-11-18T15:10:21;6.50;53.20
64549;DHT22;49838;51.798;10.954;2022-11-18T15:12:48;6.50;53.10
64549;DHT22;49838;51.798;10.954;2022-11-18T15:15:15;6.50;52.90
64549;DHT22;49838;51.798;10.954;2022-11-18T15:17:43;6.50;53.10
64549;DHT22;49838;51.798;10.954;2022-11-18T15:20:11;6.40;52.90
64549;DHT22;49838;51.798;10.954;2022-11-18T15:22:41;6.40;53.00
64549;DHT22;49838;51.798;10.954;2022-11-18T15:25:10;6.40;53.00
64549;DHT22;49838;51.798;10.954;2022-11-18T15:27:37;6.40;52.90
64549;DHT22;49838;51.798;10.954;2022-11-18T15:30:06;6.40;52.90
64549;DHT22;49838;51.798;10.954;2022-11-18T15:32:34;6.40;53.00
64549;DHT22;49838;51.798;10.954;2022-11-18T15:35:01;6.40;52.90
64549;DHT22;49838;51.798;10.954;2022-11-18T15:37:29;6.40;53.00
64549;DHT22;49838;51.798;10.954;2022-11-18T15:39:56;6.30;53.10
64549;DHT22;49838;51.798;10.954;2022-11-18T15:42:25;6.20;53.30
64549;DHT22;49838;51.798;10.954;2022-11-18T15:44:53;6.30;53.30
64549;DHT22;49838;51.798;10.954;2022-11-18T15:47:20;6.20;53.20
64549;DHT22;49838;51.798;10.954;2022-11-18T15:49:47;6.20;53.00
64549;DHT22;49838;51.798;10.954;2022-11-18T15:52:15;6.20;52.90
64549;DHT22;49838;51.798;10.954;2022-11-18T15:54:43;6.10;52.80
64549;DHT22;49838;51.798;10.954;2022-11-18T15:57:11;6.10;52.80
64549;DHT22;49838;51.798;10.954;2022-11-18T15:59:40;6.10;52.70
64549;DHT22;49838;51.798;10.954;2022-11-18T16:02:08;6.00;52.80